createdAt,value
2018-03-19T00:01:43.787Z,38.53
2018-03-19T00:04:13.749Z,32.07
2018-03-19T00:06:41.685Z,37.20
2018-03-19T00:09:10.371Z,40.70
2018-03-19T00:11:38.205Z,39.57
2018-03-19T00:14:05.965Z,38.73
2018-03-19T00:16:34.647Z,43.97
2018-03-19T00:19:02.806Z,44.40
2018-03-19T00:21:31.857Z,37.80
2018-03-19T00:23:59.986Z,42.50
2018-03-19T00:26:28.886Z,42.47
2018-03-19T00:28:56.925Z,42.43
2018-03-19T00:31:25.085Z,41.13
2018-03-19T00:33:53.688Z,45.40
2018-03-19T00:36:21.728Z,39.60
2018-03-19T00:38:50.947Z,45.27
2018-03-19T00:41:18.967Z,34.67
2018-03-19T00:43:47.165Z,38.80
2018-03-19T00:46:15.096Z,38.93
2018-03-19T00:48:42.985Z,35.17
2018-03-19T00:51:10.866Z,35.40
2018-03-19T00:53:38.845Z,39.50
2018-03-19T00:56:07.798Z,34.80
2018-03-19T00:58:35.564Z,38.20
2018-03-19T01:01:03.648Z,31.77
2018-03-19T01:03:31.388Z,33.20
2018-03-19T01:05:59.509Z,31.50
2018-03-19T01:08:27.447Z,30.83
2018-03-19T01:10:55.989Z,28.77
2018-03-19T01:13:23.889Z,35.70
2018-03-19T01:15:51.971Z,32.80
2018-03-19T01:18:19.829Z,36.83
2018-03-19T01:20:47.749Z,32.27
2018-03-19T01:23:15.808Z,32.60
2018-03-19T01:25:43.948Z,32.13
2018-03-19T01:28:12.073Z,34.15
2018-03-19T01:30:40.127Z,30.65
2018-03-19T01:33:08.116Z,36.70
2018-03-19T01:35:36.048Z,36.87
2018-03-19T01:38:03.905Z,36.10
2018-03-19T01:40:31.925Z,29.90
2018-03-19T01:42:59.885Z,31.67
2018-03-19T01:47:55.265Z,30.93
2018-03-19T01:50:23.145Z,33.73
2018-03-19T01:52:51.084Z,34.07
2018-03-19T01:55:18.985Z,37.75
2018-03-19T01:57:49.729Z,36.10
2018-03-19T02:00:17.376Z,34.90
2018-03-19T02:02:46.145Z,34.27
2018-03-19T02:05:14.086Z,33.37
2018-03-19T02:07:41.968Z,35.27
2018-03-19T02:10:10.146Z,33.90
2018-03-19T02:12:38.446Z,32.70
2018-03-19T02:15:06.310Z,38.43
2018-03-19T02:17:34.386Z,32.97
2018-03-19T02:20:02.966Z,35.77
2018-03-19T02:22:33.473Z,37.45
2018-03-19T02:25:01.446Z,35.17
2018-03-19T02:27:30.247Z,29.57
2018-03-19T02:29:58.045Z,33.90
2018-03-19T02:32:26.266Z,34.27
2018-03-19T02:34:55.245Z,34.10
2018-03-19T02:39:50.544Z,30.63
2018-03-19T02:42:18.725Z,37.70
2018-03-19T02:44:46.586Z,37.23
2018-03-19T02:47:14.500Z,33.03
2018-03-19T02:49:42.326Z,36.80
2018-03-19T03:04:28.686Z,34.70
2018-03-19T03:06:56.427Z,36.20
2018-03-19T03:19:15.287Z,37.50
2018-03-19T03:29:06.625Z,31.17
2018-03-19T03:31:34.527Z,34.40
2018-03-19T04:33:21.583Z,32.60
2018-03-19T04:40:44.806Z,30.80
2018-03-19T04:43:12.926Z,33.05
2018-03-19T04:45:40.765Z,32.40
2018-03-19T04:50:38.349Z,38.50
2018-03-19T05:00:29.513Z,30.95
2018-03-19T05:05:25.605Z,34.37
2018-03-19T05:07:53.885Z,34.17
2018-03-19T05:10:21.823Z,34.70
2018-03-19T05:12:49.685Z,35.07
2018-03-19T05:15:17.734Z,35.60
2018-03-19T05:17:45.873Z,36.00
2018-03-19T05:20:14.487Z,36.37
2018-03-19T05:22:42.404Z,29.33
2018-03-19T05:25:10.285Z,33.73
2018-03-19T05:27:38.253Z,35.93
2018-03-19T05:30:06.386Z,39.73
2018-03-19T05:32:34.307Z,30.90
2018-03-19T05:35:02.645Z,32.60
2018-03-19T05:37:30.866Z,39.40
2018-03-19T05:39:58.687Z,38.63
2018-03-19T05:42:26.465Z,34.37
2018-03-19T05:44:54.646Z,35.23
2018-03-19T05:47:22.604Z,36.37
2018-03-19T05:49:51.105Z,38.10
2018-03-19T05:52:19.765Z,41.73
2018-03-19T05:54:47.638Z,40.63
2018-03-19T05:57:15.805Z,35.17
2018-03-19T05:59:43.605Z,36.23
2018-03-19T06:02:11.329Z,43.10
2018-03-19T06:04:39.289Z,48.03
2018-03-19T06:07:07.449Z,40.40
2018-03-19T06:09:35.689Z,44.60
2018-03-19T06:12:03.869Z,36.00
2018-03-19T06:14:31.638Z,34.23
2018-03-19T06:16:59.489Z,33.97
2018-03-19T06:19:27.249Z,34.13
2018-03-19T06:21:55.290Z,32.80
2018-03-19T06:24:23.066Z,35.07
2018-03-19T06:26:51.048Z,33.00
2018-03-19T06:29:18.804Z,36.33
2018-03-19T06:31:51.202Z,39.93
2018-03-19T06:34:23.889Z,35.73
2018-03-19T06:36:55.620Z,37.17
2018-03-19T06:39:24.722Z,41.03
2018-03-19T06:41:52.386Z,37.03
2018-03-19T06:44:21.865Z,38.40
2018-03-19T07:28:49.887Z,26.07
2018-03-19T07:31:18.446Z,31.73
2018-03-19T07:33:46.293Z,27.00
2018-03-19T07:36:14.371Z,32.07
2018-03-19T07:38:42.412Z,29.83
2018-03-19T07:41:10.306Z,30.33
2018-03-19T07:43:38.526Z,27.07
2018-03-19T07:46:06.567Z,29.07
2018-03-19T07:48:34.759Z,29.97
2018-03-19T07:51:02.826Z,25.87
2018-03-19T07:53:30.848Z,25.83
2018-03-19T07:55:59.388Z,29.20
2018-03-19T07:58:27.287Z,31.63
2018-03-19T08:00:55.068Z,30.57
2018-03-19T08:03:22.954Z,26.00
2018-03-19T08:05:52.250Z,30.73
2018-03-19T08:08:20.069Z,27.80
2018-03-19T08:10:48.006Z,34.00
2018-03-19T08:23:06.573Z,32.60
2018-03-19T08:30:32.021Z,31.05
2018-03-19T09:22:12.813Z,34.50
2018-03-19T09:24:42.787Z,32.80
2018-03-19T09:27:11.291Z,26.07
2018-03-19T09:29:39.106Z,28.47
2018-03-19T09:32:06.946Z,26.10
2018-03-19T09:37:02.009Z,27.57
2018-03-19T09:39:29.685Z,26.13
2018-03-19T09:56:42.986Z,18.50
2018-03-19T09:59:11.636Z,18.70
2018-03-19T10:01:39.366Z,21.80
2018-03-19T10:04:07.067Z,22.60
2018-03-19T10:06:34.866Z,21.00
2018-03-19T10:11:34.410Z,22.87
2018-03-19T10:14:02.217Z,21.85
2018-03-19T10:16:29.946Z,22.85
2018-03-19T10:18:57.658Z,26.10
2018-03-19T10:21:25.488Z,22.30
2018-03-19T10:23:53.228Z,20.65
2018-03-19T11:20:52.850Z,21.55
2018-03-19T11:25:48.070Z,22.50
2018-03-19T11:43:03.871Z,19.93
2018-03-19T11:45:31.648Z,19.87
2018-03-19T11:47:59.949Z,19.70
2018-03-19T11:50:27.732Z,22.00
2018-03-19T11:52:56.386Z,20.77
2018-03-19T11:55:24.213Z,18.10
2018-03-19T11:57:52.267Z,16.00
2018-03-19T12:00:22.341Z,17.53
2018-03-19T12:02:50.569Z,21.37
2018-03-19T12:05:18.691Z,19.70
2018-03-19T12:07:46.529Z,22.13
2018-03-19T12:10:14.369Z,22.83
2018-03-19T12:12:42.324Z,22.83
2018-03-19T12:15:10.309Z,20.03
2018-03-19T12:17:38.268Z,19.33
2018-03-19T12:20:06.109Z,19.53
2018-03-19T12:22:33.888Z,19.93
2018-03-19T12:25:05.532Z,19.17
2018-03-19T12:27:33.927Z,20.47
2018-03-19T12:30:01.753Z,20.35
2018-03-19T12:32:29.746Z,21.40
2018-03-19T12:34:58.267Z,19.30
2018-03-19T12:37:26.426Z,18.60
2018-03-19T14:03:39.926Z,23.03
2018-03-19T14:06:07.846Z,23.17
2018-03-19T17:18:26.087Z,31.77
2018-03-19T17:20:54.047Z,29.27
2018-03-19T17:23:22.033Z,32.13
2018-03-19T17:25:50.170Z,31.27
2018-03-19T17:28:18.092Z,36.10
2018-03-19T17:30:45.980Z,31.50
2018-03-19T17:33:14.006Z,31.03
2018-03-19T17:35:42.027Z,34.70
2018-03-19T17:38:09.837Z,35.40
2018-03-19T17:40:37.831Z,33.63
2018-03-19T17:43:05.888Z,38.60
2018-03-19T17:45:35.088Z,35.83
2018-03-19T17:48:03.807Z,32.23
2018-03-19T17:50:32.607Z,35.50
2018-03-19T17:53:00.647Z,41.77
2018-03-19T17:55:28.926Z,39.83
2018-03-19T17:57:57.727Z,40.13
2018-03-19T18:00:26.033Z,43.40
2018-03-19T18:02:53.926Z,42.77
2018-03-19T18:05:21.687Z,37.93
2018-03-19T18:07:49.588Z,39.53
2018-03-19T18:10:17.576Z,35.87
2018-03-19T18:12:45.506Z,38.50
2018-03-19T18:15:13.808Z,36.83
2018-03-19T18:17:42.469Z,37.93
2018-03-19T18:20:10.606Z,39.30
2018-03-19T18:22:38.687Z,34.33
2018-03-19T18:25:06.553Z,33.17
2018-03-19T18:27:34.688Z,37.23
2018-03-19T18:30:03.272Z,38.33
2018-03-19T18:32:31.147Z,36.37
2018-03-19T18:34:59.367Z,36.57
2018-03-19T18:37:27.365Z,31.90
2018-03-19T18:39:55.243Z,35.77
2018-03-19T18:42:23.231Z,40.67
2018-03-19T18:44:51.827Z,43.43
2018-03-19T18:47:23.602Z,44.23
2018-03-19T18:49:51.989Z,35.80
2018-03-19T18:52:20.122Z,33.73
2018-03-19T18:54:48.026Z,42.40
2018-03-19T18:57:16.026Z,43.17
2018-03-19T18:59:44.468Z,33.93
2018-03-19T19:02:12.728Z,35.13
2018-03-19T19:04:41.187Z,41.73
2018-03-19T19:07:10.706Z,38.53
2018-03-19T19:09:39.288Z,41.57
2018-03-19T19:12:07.646Z,38.07
2018-03-19T19:14:35.488Z,39.90
2018-03-19T19:17:03.969Z,43.10
2018-03-19T19:19:33.107Z,38.87
2018-03-19T19:22:01.273Z,42.53
2018-03-19T19:24:29.727Z,43.87
2018-03-19T19:26:59.175Z,38.67
2018-03-19T19:29:27.918Z,39.87
2018-03-19T19:31:56.868Z,37.57
2018-03-19T19:34:25.876Z,39.67
2018-03-19T19:36:54.728Z,38.73
2018-03-19T19:39:22.605Z,44.77
2018-03-19T19:41:51.667Z,39.73
2018-03-19T19:44:20.207Z,38.90
2018-03-19T19:46:48.827Z,38.90
2018-03-19T19:49:17.107Z,40.63
2018-03-19T19:51:46.186Z,39.50
2018-03-19T19:54:14.046Z,39.13
2018-03-19T19:56:42.828Z,37.47
2018-03-19T19:59:11.019Z,34.93
2018-03-19T20:01:38.947Z,35.40
2018-03-19T20:04:07.048Z,34.93
2018-03-19T20:06:34.928Z,36.57
2018-03-19T20:09:03.086Z,31.13
2018-03-19T20:11:31.932Z,34.30
2018-03-19T20:14:00.630Z,37.87
2018-03-19T20:16:28.929Z,34.80
2018-03-19T20:18:58.569Z,38.43
2018-03-19T20:21:27.328Z,35.50
2018-03-19T20:23:55.206Z,35.33
2018-03-19T20:26:23.067Z,38.33
2018-03-19T20:28:51.228Z,36.80
2018-03-19T20:31:19.067Z,38.07
2018-03-19T20:33:46.911Z,40.37
2018-03-19T20:36:14.850Z,41.47
2018-03-19T20:38:43.072Z,39.17
2018-03-19T20:41:11.034Z,40.87
2018-03-19T20:43:39.247Z,43.67
2018-03-19T20:46:07.173Z,41.50
2018-03-19T20:48:35.486Z,42.50
2018-03-19T20:51:03.431Z,39.97
2018-03-19T20:53:31.275Z,40.87
2018-03-19T20:55:59.227Z,38.63
2018-03-19T20:58:27.462Z,40.20
2018-03-19T21:00:55.526Z,38.53
2018-03-19T21:03:23.286Z,38.33
2018-03-19T21:05:51.327Z,42.57
2018-03-19T21:08:19.268Z,41.27
2018-03-19T21:10:47.726Z,43.20
2018-03-19T21:13:16.436Z,43.10
2018-03-19T21:15:47.052Z,41.37
2018-03-19T21:18:15.267Z,46.90
2018-03-19T21:20:43.439Z,42.80
2018-03-19T21:23:11.647Z,43.37
2018-03-19T21:25:39.807Z,43.33
2018-03-19T21:28:07.806Z,44.63
2018-03-19T21:30:35.946Z,40.20
2018-03-19T21:33:03.928Z,37.90
2018-03-19T21:35:32.526Z,40.37
2018-03-19T21:38:00.387Z,40.83
2018-03-19T21:40:28.536Z,36.83
2018-03-19T21:42:57.287Z,41.93
2018-03-19T21:45:25.107Z,39.63
2018-03-19T21:47:53.026Z,38.17
2018-03-19T21:50:20.989Z,36.87
2018-03-19T21:52:49.062Z,38.77
2018-03-19T21:55:17.206Z,38.67
2018-03-19T21:57:45.246Z,39.77
2018-03-19T22:00:18.514Z,36.40
2018-03-19T22:02:46.767Z,40.43
2018-03-19T22:05:15.288Z,37.20
2018-03-19T22:07:43.246Z,38.17
2018-03-19T22:10:11.427Z,40.37
2018-03-19T22:12:39.507Z,40.97
2018-03-19T22:15:08.127Z,39.50
2018-03-19T22:17:36.286Z,39.70
2018-03-19T22:20:04.986Z,38.05
2018-03-19T22:22:32.886Z,36.30
2018-03-19T22:25:01.566Z,38.90
2018-03-19T22:27:29.647Z,35.20
2018-03-19T22:29:57.948Z,36.93
2018-03-19T22:32:27.609Z,32.35
2018-03-19T22:34:55.446Z,35.97
2018-03-19T22:37:23.365Z,38.67
2018-03-19T22:39:51.616Z,35.80
2018-03-19T22:44:47.965Z,39.35
2018-03-19T22:49:43.228Z,36.87
2018-03-19T22:52:11.586Z,33.40
2018-03-19T22:57:06.986Z,33.75
2018-03-19T22:59:35.047Z,36.90
2018-03-19T23:02:06.012Z,35.45
2018-03-19T23:07:07.705Z,39.40
